sensor_id;sensor_type;location;lat;lon;timestamp;temperature;humidity
2010;DHT22;1008;47.404;8.502;2022-09-09T00:02:14;18.70;99.90
2010;DHT22;1008;47.404;8.502;2022-09-09T00:04:48;18.80;99.90
2010;DHT22;1008;47.404;8.502;2022-09-09T00:07:21;19.00;99.90
2010;DHT22;1008;47.404;8.502;2022-09-09T00:09:58;19.00;99.90
2010;DHT22;1008;47.404;8.502;2022-09-09T00:12:34;18.80;99.90
2010;DHT22;1008;47.404;8.502;2022-09-09T00:15:07;18.80;99.90
2010;DHT22;1008;47.404;8.502;2022-09-09T00:17:42;18.50;99.90
2010;DHT22;1008;47.404;8.502;2022-09-09T00:20:13;18.20;99.90
2010;DHT22;1008;47.404;8.502;2022-09-09T00:22:45;18.20;99.90
2010;DHT22;1008;47.404;8.502;2022-09-09T00:25:19;18.10;99.90
2010;DHT22;1008;47.404;8.502;2022-09-09T00:27:50;18.10;99.90
2010;DHT22;1008;47.404;8.502;2022-09-09T00:30:19;18.10;99.90
2010;DHT22;1008;47.404;8.502;2022-09-09T00:32:48;17.90;99.90
2010;DHT22;1008;47.404;8.502;2022-09-09T00:35:18;18.20;99.90
2010;DHT22;1008;47.404;8.502;2022-09-09T00:37:51;18.10;99.90
2010;DHT22;1008;47.404;8.502;2022-09-09T00:40:24;18.20;99.90
2010;DHT22;1008;47.404;8.502;2022-09-09T00:43:00;18.40;99.90
2010;DHT22;1008;47.404;8.502;2022-09-09T00:45:52;18.30;99.90
2010;DHT22;1008;47.404;8.502;2022-09-09T00:48:26;18.30;99.90
2010;DHT22;1008;47.404;8.502;2022-09-09T00:50:59;18.30;99.90
2010;DHT22;1008;47.404;8.502;2022-09-09T00:53:37;18.00;99.90
2010;DHT22;1008;47.404;8.502;2022-09-09T00:56:12;18.10;99.90
2010;DHT22;1008;47.404;8.502;2022-09-09T00:58:42;18.30;99.90
2010;DHT22;1008;47.404;8.502;2022-09-09T01:01:11;18.30;99.90
2010;DHT22;1008;47.404;8.502;2022-09-09T01:03:42;18.30;99.90
2010;DHT22;1008;47.404;8.502;2022-09-09T01:06:16;18.20;99.90
2010;DHT22;1008;47.404;8.502;2022-09-09T01:09:07;18.30;99.90
2010;DHT22;1008;47.404;8.502;2022-09-09T01:11:43;18.10;99.90
2010;DHT22;1008;47.404;8.502;2022-09-09T01:14:20;17.90;99.90
2010;DHT22;1008;47.404;8.502;2022-09-09T01:16:51;17.80;99.90
2010;DHT22;1008;47.404;8.502;2022-09-09T01:19:40;18.10;99.90
2010;DHT22;1008;47.404;8.502;2022-09-09T01:22:18;18.10;99.90
2010;DHT22;1008;47.404;8.502;2022-09-09T01:25:05;18.20;99.90
2010;DHT22;1008;47.404;8.502;2022-09-09T01:27:37;18.00;99.90
2010;DHT22;1008;47.404;8.502;2022-09-09T01:30:09;17.90;99.90
2010;DHT22;1008;47.404;8.502;2022-09-09T01:32:40;17.60;99.90
2010;DHT22;1008;47.404;8.502;2022-09-09T01:35:10;17.50;99.90
2010;DHT22;1008;47.404;8.502;2022-09-09T01:37:37;17.60;99.90
2010;DHT22;1008;47.404;8.502;2022-09-09T01:40:05;17.60;99.90
2010;DHT22;1008;47.404;8.502;2022-09-09T01:42:32;17.50;99.90
2010;DHT22;1008;47.404;8.502;2022-09-09T01:45:00;17.80;99.90
2010;DHT22;1008;47.404;8.502;2022-09-09T01:47:27;17.70;99.90
2010;DHT22;1008;47.404;8.502;2022-09-09T01:49:54;18.00;99.90
2010;DHT22;1008;47.404;8.502;2022-09-09T01:52:21;17.90;99.90
2010;DHT22;1008;47.404;8.502;2022-09-09T01:54:47;17.90;99.90
2010;DHT22;1008;47.404;8.502;2022-09-09T01:57:19;17.70;99.90
2010;DHT22;1008;47.404;8.502;2022-09-09T01:59:58;17.80;99.90
2010;DHT22;1008;47.404;8.502;2022-09-09T02:02:32;18.00;99.90
2010;DHT22;1008;47.404;8.502;2022-09-09T02:05:08;18.10;99.90
2010;DHT22;1008;47.404;8.502;2022-09-09T02:07:39;18.10;99.90
2010;DHT22;1008;47.404;8.502;2022-09-09T02:10:12;18.00;99.90
2010;DHT22;1008;47.404;8.502;2022-09-09T02:12:43;18.10;99.90
2010;DHT22;1008;47.404;8.502;2022-09-09T02:15:20;18.50;99.90
2010;DHT22;1008;47.404;8.502;2022-09-09T02:17:52;18.20;99.90
2010;DHT22;1008;47.404;8.502;2022-09-09T02:20:22;18.30;99.90
2010;DHT22;1008;47.404;8.502;2022-09-09T02:22:51;18.30;99.90
2010;DHT22;1008;47.404;8.502;2022-09-09T02:25:21;18.20;99.90
2010;DHT22;1008;47.404;8.502;2022-09-09T02:27:50;18.20;99.90
2010;DHT22;1008;47.404;8.502;2022-09-09T02:30:18;18.30;99.90
2010;DHT22;1008;47.404;8.502;2022-09-09T02:32:46;18.20;99.90
2010;DHT22;1008;47.404;8.502;2022-09-09T02:35:17;18.00;99.90
2010;DHT22;1008;47.404;8.502;2022-09-09T02:37:45;18.00;99.90
2010;DHT22;1008;47.404;8.502;2022-09-09T02:40:13;17.90;99.90
2010;DHT22;1008;47.404;8.502;2022-09-09T02:42:42;17.80;99.90
2010;DHT22;1008;47.404;8.502;2022-09-09T02:45:11;17.60;99.90
2010;DHT22;1008;47.404;8.502;2022-09-09T02:47:41;17.70;99.90
2010;DHT22;1008;47.404;8.502;2022-09-09T02:50:15;18.00;99.90
2010;DHT22;1008;47.404;8.502;2022-09-09T02:52:51;17.90;99.90
2010;DHT22;1008;47.404;8.502;2022-09-09T02:55:27;17.80;99.90
2010;DHT22;1008;47.404;8.502;2022-09-09T02:57:57;17.70;99.90
2010;DHT22;1008;47.404;8.502;2022-09-09T03:00:25;17.70;99.90
2010;DHT22;1008;47.404;8.502;2022-09-09T03:02:53;17.70;99.90
2010;DHT22;1008;47.404;8.502;2022-09-09T03:05:22;17.70;99.90
2010;DHT22;1008;47.404;8.502;2022-09-09T03:07:49;17.70;99.90
2010;DHT22;1008;47.404;8.502;2022-09-09T03:10:16;17.80;99.90
2010;DHT22;1008;47.404;8.502;2022-09-09T03:12:43;17.90;99.90
2010;DHT22;1008;47.404;8.502;2022-09-09T03:15:09;17.90;99.90
2010;DHT22;1008;47.404;8.502;2022-09-09T03:17:36;17.90;99.90
2010;DHT22;1008;47.404;8.502;2022-09-09T03:20:04;18.00;99.90
2010;DHT22;1008;47.404;8.502;2022-09-09T03:22:32;18.10;99.90
2010;DHT22;1008;47.404;8.502;2022-09-09T03:24:59;18.20;99.90
2010;DHT22;1008;47.404;8.502;2022-09-09T03:27:26;18.10;99.90
2010;DHT22;1008;47.404;8.502;2022-09-09T03:29:52;17.80;99.90
2010;DHT22;1008;47.404;8.502;2022-09-09T03:32:20;17.50;99.90
2010;DHT22;1008;47.404;8.502;2022-09-09T03:34:48;17.50;99.90
2010;DHT22;1008;47.404;8.502;2022-09-09T03:37:15;17.50;99.90
2010;DHT22;1008;47.404;8.502;2022-09-09T03:39:44;17.50;99.90
2010;DHT22;1008;47.404;8.502;2022-09-09T03:42:12;17.60;99.90
2010;DHT22;1008;47.404;8.502;2022-09-09T03:44:43;17.30;99.90
2010;DHT22;1008;47.404;8.502;2022-09-09T03:47:16;17.00;99.90
2010;DHT22;1008;47.404;8.502;2022-09-09T03:49:43;17.00;99.90
2010;DHT22;1008;47.404;8.502;2022-09-09T03:52:10;17.20;99.90
2010;DHT22;1008;47.404;8.502;2022-09-09T03:54:37;17.10;99.90
2010;DHT22;1008;47.404;8.502;2022-09-09T03:57:06;17.10;99.90
2010;DHT22;1008;47.404;8.502;2022-09-09T03:59:32;17.40;99.90
2010;DHT22;1008;47.404;8.502;2022-09-09T04:02:00;17.10;99.90
2010;DHT22;1008;47.404;8.502;2022-09-09T04:04:27;17.20;99.90
2010;DHT22;1008;47.404;8.502;2022-09-09T04:06:54;17.10;99.90
2010;DHT22;1008;47.404;8.502;2022-09-09T04:09:21;17.20;99.90
2010;DHT22;1008;47.404;8.502;2022-09-09T04:11:48;17.10;99.90
2010;DHT22;1008;47.404;8.502;2022-09-09T04:14:17;17.00;99.90
2010;DHT22;1008;47.404;8.502;2022-09-09T04:16:43;17.00;99.90
2010;DHT22;1008;47.404;8.502;2022-09-09T04:19:11;16.80;99.90
2010;DHT22;1008;47.404;8.502;2022-09-09T04:21:39;16.60;99.90
2010;DHT22;1008;47.404;8.502;2022-09-09T04:24:06;16.90;99.90
2010;DHT22;1008;47.404;8.502;2022-09-09T04:26:33;17.10;99.90
2010;DHT22;1008;47.404;8.502;2022-09-09T04:29:00;17.00;99.90
2010;DHT22;1008;47.404;8.502;2022-09-09T04:31:28;17.00;99.90
2010;DHT22;1008;47.404;8.502;2022-09-09T04:33:55;16.90;99.90
2010;DHT22;1008;47.404;8.502;2022-09-09T04:36:22;16.90;99.90
2010;DHT22;1008;47.404;8.502;2022-09-09T04:38:50;16.90;99.90
2010;DHT22;1008;47.404;8.502;2022-09-09T04:41:16;17.00;99.90
2010;DHT22;1008;47.404;8.502;2022-09-09T04:43:43;16.90;99.90
2010;DHT22;1008;47.404;8.502;2022-09-09T04:46:10;16.90;99.90
2010;DHT22;1008;47.404;8.502;2022-09-09T04:48:38;17.00;99.90
2010;DHT22;1008;47.404;8.502;2022-09-09T04:51:08;17.20;99.90
2010;DHT22;1008;47.404;8.502;2022-09-09T04:53:35;17.30;99.90
2010;DHT22;1008;47.404;8.502;2022-09-09T04:56:04;17.30;99.90
2010;DHT22;1008;47.404;8.502;2022-09-09T04:58:31;17.40;99.90
2010;DHT22;1008;47.404;8.502;2022-09-09T05:01:06;17.50;99.90
2010;DHT22;1008;47.404;8.502;2022-09-09T05:03:33;17.70;99.90
2010;DHT22;1008;47.404;8.502;2022-09-09T05:06:05;17.70;99.90
2010;DHT22;1008;47.404;8.502;2022-09-09T05:08:33;17.80;99.90
2010;DHT22;1008;47.404;8.502;2022-09-09T05:11:00;17.80;99.90
2010;DHT22;1008;47.404;8.502;2022-09-09T05:13:27;17.90;99.90
2010;DHT22;1008;47.404;8.502;2022-09-09T05:15:54;17.80;99.90
2010;DHT22;1008;47.404;8.502;2022-09-09T05:18:21;17.80;99.90
2010;DHT22;1008;47.404;8.502;2022-09-09T05:20:48;17.80;99.90
2010;DHT22;1008;47.404;8.502;2022-09-09T05:23:17;17.30;99.90
2010;DHT22;1008;47.404;8.502;2022-09-09T05:25:54;17.10;99.90
2010;DHT22;1008;47.404;8.502;2022-09-09T05:28:22;17.10;99.90
2010;DHT22;1008;47.404;8.502;2022-09-09T05:30:55;17.00;99.90
2010;DHT22;1008;47.404;8.502;2022-09-09T05:33:23;16.80;99.90
2010;DHT22;1008;47.404;8.502;2022-09-09T05:35:55;16.90;99.90
2010;DHT22;1008;47.404;8.502;2022-09-09T05:38:24;16.70;99.90
2010;DHT22;1008;47.404;8.502;2022-09-09T05:40:51;16.90;99.90
2010;DHT22;1008;47.404;8.502;2022-09-09T05:43:17;16.90;99.90
2010;DHT22;1008;47.404;8.502;2022-09-09T05:45:45;17.00;99.90
2010;DHT22;1008;47.404;8.502;2022-09-09T05:48:13;17.10;99.90
2010;DHT22;1008;47.404;8.502;2022-09-09T05:50:40;17.30;99.90
2010;DHT22;1008;47.404;8.502;2022-09-09T05:53:08;17.20;99.90
2010;DHT22;1008;47.404;8.502;2022-09-09T05:55:36;17.10;99.90
2010;DHT22;1008;47.404;8.502;2022-09-09T05:58:03;17.10;99.90
2010;DHT22;1008;47.404;8.502;2022-09-09T06:00:30;17.30;99.90
2010;DHT22;1008;47.404;8.502;2022-09-09T06:02:57;17.10;99.90
2010;DHT22;1008;47.404;8.502;2022-09-09T06:05:24;17.30;99.90
2010;DHT22;1008;47.404;8.502;2022-09-09T06:07:53;17.10;99.90
2010;DHT22;1008;47.404;8.502;2022-09-09T06:10:20;17.10;99.90
2010;DHT22;1008;47.404;8.502;2022-09-09T06:12:48;17.10;99.90
2010;DHT22;1008;47.404;8.502;2022-09-09T06:15:15;17.10;99.90
2010;DHT22;1008;47.404;8.502;2022-09-09T06:17:42;17.10;99.90
2010;DHT22;1008;47.404;8.502;2022-09-09T06:20:10;17.10;99.90
2010;DHT22;1008;47.404;8.502;2022-09-09T06:22:39;17.30;99.90
2010;DHT22;1008;47.404;8.502;2022-09-09T06:25:07;17.30;99.90
2010;DHT22;1008;47.404;8.502;2022-09-09T06:27:34;17.40;99.90
2010;DHT22;1008;47.404;8.502;2022-09-09T06:30:03;17.60;99.90
2010;DHT22;1008;47.404;8.502;2022-09-09T06:32:30;17.60;99.90
2010;DHT22;1008;47.404;8.502;2022-09-09T06:35:00;17.70;99.90
2010;DHT22;1008;47.404;8.502;2022-09-09T06:37:27;17.70;99.90
2010;DHT22;1008;47.404;8.502;2022-09-09T06:39:54;17.40;99.90
2010;DHT22;1008;47.404;8.502;2022-09-09T06:42:21;17.40;99.90
2010;DHT22;1008;47.404;8.502;2022-09-09T06:44:48;17.60;99.90
2010;DHT22;1008;47.404;8.502;2022-09-09T06:47:16;17.90;99.90
2010;DHT22;1008;47.404;8.502;2022-09-09T06:49:43;17.80;99.90
2010;DHT22;1008;47.404;8.502;2022-09-09T06:52:10;17.90;99.90
2010;DHT22;1008;47.404;8.502;2022-09-09T06:54:37;18.20;99.90
2010;DHT22;1008;47.404;8.502;2022-09-09T06:57:04;18.40;99.90
2010;DHT22;1008;47.404;8.502;2022-09-09T06:59:32;18.20;99.90
2010;DHT22;1008;47.404;8.502;2022-09-09T07:01:59;18.20;99.90
2010;DHT22;1008;47.404;8.502;2022-09-09T07:04:27;18.10;99.90
2010;DHT22;1008;47.404;8.502;2022-09-09T07:06:54;18.20;99.90
2010;DHT22;1008;47.404;8.502;2022-09-09T07:09:21;18.30;99.90
2010;DHT22;1008;47.404;8.502;2022-09-09T07:11:50;18.40;99.90
2010;DHT22;1008;47.404;8.502;2022-09-09T07:14:18;18.60;99.90
2010;DHT22;1008;47.404;8.502;2022-09-09T07:16:46;18.60;99.90
2010;DHT22;1008;47.404;8.502;2022-09-09T07:19:13;18.70;99.90
2010;DHT22;1008;47.404;8.502;2022-09-09T07:21:42;18.60;99.90
2010;DHT22;1008;47.404;8.502;2022-09-09T07:24:10;18.40;99.90
2010;DHT22;1008;47.404;8.502;2022-09-09T07:26:38;18.40;99.90
2010;DHT22;1008;47.404;8.502;2022-09-09T07:29:05;18.40;99.90
2010;DHT22;1008;47.404;8.502;2022-09-09T07:31:33;18.60;99.90
2010;DHT22;1008;47.404;8.502;2022-09-09T07:34:00;18.70;99.90
2010;DHT22;1008;47.404;8.502;2022-09-09T07:36:28;18.70;99.90
2010;DHT22;1008;47.404;8.502;2022-09-09T07:38:58;18.60;99.90
2010;DHT22;1008;47.404;8.502;2022-09-09T07:41:27;18.50;99.90
2010;DHT22;1008;47.404;8.502;2022-09-09T07:43:54;18.50;99.90
2010;DHT22;1008;47.404;8.502;2022-09-09T07:46:22;18.70;99.90
2010;DHT22;1008;47.404;8.502;2022-09-09T07:48:51;19.10;99.90
2010;DHT22;1008;47.404;8.502;2022-09-09T07:51:19;19.10;99.90
2010;DHT22;1008;47.404;8.502;2022-09-09T07:53:48;19.10;99.90
2010;DHT22;1008;47.404;8.502;2022-09-09T07:56:19;19.10;99.90
2010;DHT22;1008;47.404;8.502;2022-09-09T07:58:49;19.20;99.90
2010;DHT22;1008;47.404;8.502;2022-09-09T08:01:18;19.40;99.90
2010;DHT22;1008;47.404;8.502;2022-09-09T08:03:45;19.40;99.90
2010;DHT22;1008;47.404;8.502;2022-09-09T08:06:13;19.30;99.90
2010;DHT22;1008;47.404;8.502;2022-09-09T08:08:41;19.40;99.90
2010;DHT22;1008;47.404;8.502;2022-09-09T08:11:12;19.50;99.90
2010;DHT22;1008;47.404;8.502;2022-09-09T08:13:42;19.60;99.90
2010;DHT22;1008;47.404;8.502;2022-09-09T08:16:11;19.50;99.90
2010;DHT22;1008;47.404;8.502;2022-09-09T08:18:38;19.70;99.90
2010;DHT22;1008;47.404;8.502;2022-09-09T08:21:06;20.00;99.90
2010;DHT22;1008;47.404;8.502;2022-09-09T08:23:34;20.10;99.90
2010;DHT22;1008;47.404;8.502;2022-09-09T08:26:05;19.80;99.90
2010;DHT22;1008;47.404;8.502;2022-09-09T08:28:33;19.70;99.90
2010;DHT22;1008;47.404;8.502;2022-09-09T08:31:07;19.40;99.90
2010;DHT22;1008;47.404;8.502;2022-09-09T08:33:34;19.30;99.90
2010;DHT22;1008;47.404;8.502;2022-09-09T08:36:04;19.60;99.90
2010;DHT22;1008;47.404;8.502;2022-09-09T08:38:31;20.00;99.90
2010;DHT22;1008;47.404;8.502;2022-09-09T08:41:04;19.90;99.90
2010;DHT22;1008;47.404;8.502;2022-09-09T08:43:33;19.90;99.90
2010;DHT22;1008;47.404;8.502;2022-09-09T08:46:07;20.20;99.90
2010;DHT22;1008;47.404;8.502;2022-09-09T08:48:43;20.60;99.90
2010;DHT22;1008;47.404;8.502;2022-09-09T08:51:12;20.80;99.90
2010;DHT22;1008;47.404;8.502;2022-09-09T08:53:43;21.00;99.90
2010;DHT22;1008;47.404;8.502;2022-09-09T08:56:14;21.00;99.90
2010;DHT22;1008;47.404;8.502;2022-09-09T08:58:45;21.00;99.90
2010;DHT22;1008;47.404;8.502;2022-09-09T09:01:28;21.10;99.90
2010;DHT22;1008;47.404;8.502;2022-09-09T09:04:02;20.90;99.90
2010;DHT22;1008;47.404;8.502;2022-09-09T09:06:43;20.80;99.90
2010;DHT22;1008;47.404;8.502;2022-09-09T09:09:19;20.50;99.90
2010;DHT22;1008;47.404;8.502;2022-09-09T09:11:50;19.90;99.90
2010;DHT22;1008;47.404;8.502;2022-09-09T09:14:20;19.80;99.90
2010;DHT22;1008;47.404;8.502;2022-09-09T09:16:54;19.50;99.90
2010;DHT22;1008;47.404;8.502;2022-09-09T09:19:23;19.40;99.90
2010;DHT22;1008;47.404;8.502;2022-09-09T09:21:54;19.40;99.90
2010;DHT22;1008;47.404;8.502;2022-09-09T09:24:29;19.30;99.90
2010;DHT22;1008;47.404;8.502;2022-09-09T09:27:00;19.30;99.90
2010;DHT22;1008;47.404;8.502;2022-09-09T09:29:31;19.30;99.90
2010;DHT22;1008;47.404;8.502;2022-09-09T09:32:02;19.30;99.90
2010;DHT22;1008;47.404;8.502;2022-09-09T09:34:30;19.30;99.90
2010;DHT22;1008;47.404;8.502;2022-09-09T09:36:57;19.80;99.90
2010;DHT22;1008;47.404;8.502;2022-09-09T09:39:28;20.20;99.90
2010;DHT22;1008;47.404;8.502;2022-09-09T09:41:55;20.70;99.90
2010;DHT22;1008;47.404;8.502;2022-09-09T09:44:26;20.50;99.90
2010;DHT22;1008;47.404;8.502;2022-09-09T09:47:04;20.60;99.90
2010;DHT22;1008;47.404;8.502;2022-09-09T09:49:33;20.40;99.90
2010;DHT22;1008;47.404;8.502;2022-09-09T09:52:00;20.40;99.90
2010;DHT22;1008;47.404;8.502;2022-09-09T09:54:29;20.20;99.90
2010;DHT22;1008;47.404;8.502;2022-09-09T09:56:58;20.60;99.90
2010;DHT22;1008;47.404;8.502;2022-09-09T09:59:35;21.00;99.90
2010;DHT22;1008;47.404;8.502;2022-09-09T10:02:20;21.20;99.90
2010;DHT22;1008;47.404;8.502;2022-09-09T10:05:00;21.00;99.90
2010;DHT22;1008;47.404;8.502;2022-09-09T10:07:27;20.70;99.90
2010;DHT22;1008;47.404;8.502;2022-09-09T10:09:56;20.50;99.90
2010;DHT22;1008;47.404;8.502;2022-09-09T10:12:31;20.30;99.90
2010;DHT22;1008;47.404;8.502;2022-09-09T10:15:07;20.50;99.90
2010;DHT22;1008;47.404;8.502;2022-09-09T10:17:44;20.20;99.90
2010;DHT22;1008;47.404;8.502;2022-09-09T10:20:26;20.10;99.90
2010;DHT22;1008;47.404;8.502;2022-09-09T10:23:06;20.60;99.90
2010;DHT22;1008;47.404;8.502;2022-09-09T10:25:44;20.20;99.90
2010;DHT22;1008;47.404;8.502;2022-09-09T10:28:41;21.00;99.90
2010;DHT22;1008;47.404;8.502;2022-09-09T10:31:19;20.90;99.90
2010;DHT22;1008;47.404;8.502;2022-09-09T10:34:00;21.40;99.90
2010;DHT22;1008;47.404;8.502;2022-09-09T10:36:33;21.00;99.90
2010;DHT22;1008;47.404;8.502;2022-09-09T10:39:03;20.80;99.90
2010;DHT22;1008;47.404;8.502;2022-09-09T10:41:40;20.60;99.90
2010;DHT22;1008;47.404;8.502;2022-09-09T10:44:26;20.80;99.90
2010;DHT22;1008;47.404;8.502;2022-09-09T10:50:20;21.10;99.90
2010;DHT22;1008;47.404;8.502;2022-09-09T10:53:00;21.40;99.90
2010;DHT22;1008;47.404;8.502;2022-09-09T10:55:35;21.80;99.90
2010;DHT22;1008;47.404;8.502;2022-09-09T10:58:05;22.40;99.90
2010;DHT22;1008;47.404;8.502;2022-09-09T11:00:38;22.50;99.90
2010;DHT22;1008;47.404;8.502;2022-09-09T11:03:09;22.40;99.90
2010;DHT22;1008;47.404;8.502;2022-09-09T11:05:43;22.50;99.90
2010;DHT22;1008;47.404;8.502;2022-09-09T11:08:14;21.80;99.90
2010;DHT22;1008;47.404;8.502;2022-09-09T11:10:45;21.60;99.90
2010;DHT22;1008;47.404;8.502;2022-09-09T11:13:17;21.20;99.90
2010;DHT22;1008;47.404;8.502;2022-09-09T11:15:50;21.00;99.90
2010;DHT22;1008;47.404;8.502;2022-09-09T11:18:20;20.90;99.90
2010;DHT22;1008;47.404;8.502;2022-09-09T11:20:51;21.50;99.90
2010;DHT22;1008;47.404;8.502;2022-09-09T11:23:24;22.10;99.90
2010;DHT22;1008;47.404;8.502;2022-09-09T11:25:55;22.80;99.90
2010;DHT22;1008;47.404;8.502;2022-09-09T11:28:40;23.80;99.90
2010;DHT22;1008;47.404;8.502;2022-09-09T11:31:33;23.80;99.90
2010;DHT22;1008;47.404;8.502;2022-09-09T11:34:13;23.40;99.90
2010;DHT22;1008;47.404;8.502;2022-09-09T11:37:06;23.20;99.90
2010;DHT22;1008;47.404;8.502;2022-09-09T11:40:04;23.20;99.90
2010;DHT22;1008;47.404;8.502;2022-09-09T11:42:34;22.90;99.90
2010;DHT22;1008;47.404;8.502;2022-09-09T11:45:19;22.40;99.90
2010;DHT22;1008;47.404;8.502;2022-09-09T11:47:52;22.30;99.90
2010;DHT22;1008;47.404;8.502;2022-09-09T11:50:29;22.30;99.90
2010;DHT22;1008;47.404;8.502;2022-09-09T11:53:06;22.20;99.90
2010;DHT22;1008;47.404;8.502;2022-09-09T11:55:44;21.90;99.90
2010;DHT22;1008;47.404;8.502;2022-09-09T11:58:17;22.10;99.90
2010;DHT22;1008;47.404;8.502;2022-09-09T12:00:46;21.90;99.90
2010;DHT22;1008;47.404;8.502;2022-09-09T12:03:31;21.90;99.90
2010;DHT22;1008;47.404;8.502;2022-09-09T12:06:09;22.20;99.90
2010;DHT22;1008;47.404;8.502;2022-09-09T12:08:42;22.80;99.90
2010;DHT22;1008;47.404;8.502;2022-09-09T12:11:11;22.90;99.90
2010;DHT22;1008;47.404;8.502;2022-09-09T12:13:38;23.00;99.90
2010;DHT22;1008;47.404;8.502;2022-09-09T12:16:29;23.30;99.90
2010;DHT22;1008;47.404;8.502;2022-09-09T12:19:06;23.50;99.90
2010;DHT22;1008;47.404;8.502;2022-09-09T12:21:40;23.90;99.90
2010;DHT22;1008;47.404;8.502;2022-09-09T12:24:13;23.60;99.90
2010;DHT22;1008;47.404;8.502;2022-09-09T12:26:46;23.40;99.90
2010;DHT22;1008;47.404;8.502;2022-09-09T12:29:23;23.60;99.90
2010;DHT22;1008;47.404;8.502;2022-09-09T12:31:55;23.70;94.90
2010;DHT22;1008;47.404;8.502;2022-09-09T12:34:32;23.60;93.20
2010;DHT22;1008;47.404;8.502;2022-09-09T12:37:04;23.70;92.90
2010;DHT22;1008;47.404;8.502;2022-09-09T12:39:33;23.80;90.10
2010;DHT22;1008;47.404;8.502;2022-09-09T12:42:01;23.90;83.50
2010;DHT22;1008;47.404;8.502;2022-09-09T12:44:30;23.60;84.60
2010;DHT22;1008;47.404;8.502;2022-09-09T12:47:00;23.60;80.10
2010;DHT22;1008;47.404;8.502;2022-09-09T12:49:30;23.60;90.10
2010;DHT22;1008;47.404;8.502;2022-09-09T12:52:02;24.10;93.20
2010;DHT22;1008;47.404;8.502;2022-09-09T12:54:31;24.50;92.60
2010;DHT22;1008;47.404;8.502;2022-09-09T12:56:58;24.20;84.10
2010;DHT22;1008;47.404;8.502;2022-09-09T12:59:34;24.60;86.50
2010;DHT22;1008;47.404;8.502;2022-09-09T13:02:01;24.20;90.00
2010;DHT22;1008;47.404;8.502;2022-09-09T13:04:28;24.30;97.30
2010;DHT22;1008;47.404;8.502;2022-09-09T13:07:05;24.70;97.50
2010;DHT22;1008;47.404;8.502;2022-09-09T13:09:35;24.50;98.00
2010;DHT22;1008;47.404;8.502;2022-09-09T13:12:02;24.60;96.50
2010;DHT22;1008;47.404;8.502;2022-09-09T13:14:33;24.20;94.10
2010;DHT22;1008;47.404;8.502;2022-09-09T13:17:04;24.20;93.50
2010;DHT22;1008;47.404;8.502;2022-09-09T13:19:34;24.30;92.10
2010;DHT22;1008;47.404;8.502;2022-09-09T13:22:11;24.00;86.00
2010;DHT22;1008;47.404;8.502;2022-09-09T13:24:39;23.50;78.80
2010;DHT22;1008;47.404;8.502;2022-09-09T13:27:26;23.80;75.80
2010;DHT22;1008;47.404;8.502;2022-09-09T13:29:55;24.10;81.90
2010;DHT22;1008;47.404;8.502;2022-09-09T13:32:24;24.60;84.40
2010;DHT22;1008;47.404;8.502;2022-09-09T13:34:53;24.50;75.70
2010;DHT22;1008;47.404;8.502;2022-09-09T13:37:23;24.40;73.50
2010;DHT22;1008;47.404;8.502;2022-09-09T13:39:53;24.30;88.00
2010;DHT22;1008;47.404;8.502;2022-09-09T13:42:25;24.40;74.60
2010;DHT22;1008;47.404;8.502;2022-09-09T13:44:54;24.00;69.20
2010;DHT22;1008;47.404;8.502;2022-09-09T13:47:28;23.70;68.70
2010;DHT22;1008;47.404;8.502;2022-09-09T13:49:55;23.80;70.50
2010;DHT22;1008;47.404;8.502;2022-09-09T13:52:27;24.30;69.90
2010;DHT22;1008;47.404;8.502;2022-09-09T13:54:57;23.60;69.70
2010;DHT22;1008;47.404;8.502;2022-09-09T13:57:25;23.70;69.10
2010;DHT22;1008;47.404;8.502;2022-09-09T13:59:54;23.70;69.90
2010;DHT22;1008;47.404;8.502;2022-09-09T14:02:21;23.70;69.40
2010;DHT22;1008;47.404;8.502;2022-09-09T14:04:48;24.00;70.90
2010;DHT22;1008;47.404;8.502;2022-09-09T14:07:17;23.90;69.20
2010;DHT22;1008;47.404;8.502;2022-09-09T14:09:44;23.90;71.10
2010;DHT22;1008;47.404;8.502;2022-09-09T14:12:16;24.20;74.30
2010;DHT22;1008;47.404;8.502;2022-09-09T14:14:42;24.50;74.60
2010;DHT22;1008;47.404;8.502;2022-09-09T14:17:11;24.40;71.20
2010;DHT22;1008;47.404;8.502;2022-09-09T14:19:39;24.10;68.60
2010;DHT22;1008;47.404;8.502;2022-09-09T14:22:06;23.60;68.30
2010;DHT22;1008;47.404;8.502;2022-09-09T14:24:33;23.10;69.70
2010;DHT22;1008;47.404;8.502;2022-09-09T14:27:00;23.00;81.10
2010;DHT22;1008;47.404;8.502;2022-09-09T14:29:27;23.20;87.70
2010;DHT22;1008;47.404;8.502;2022-09-09T14:31:54;23.30;90.10
2010;DHT22;1008;47.404;8.502;2022-09-09T14:34:22;23.20;91.00
2010;DHT22;1008;47.404;8.502;2022-09-09T14:36:48;23.00;90.90
2010;DHT22;1008;47.404;8.502;2022-09-09T14:39:16;23.00;90.30
2010;DHT22;1008;47.404;8.502;2022-09-09T14:41:43;23.30;91.60
2010;DHT22;1008;47.404;8.502;2022-09-09T14:44:10;23.10;91.70
2010;DHT22;1008;47.404;8.502;2022-09-09T14:46:38;23.10;92.10
2010;DHT22;1008;47.404;8.502;2022-09-09T14:49:04;22.90;92.90
2010;DHT22;1008;47.404;8.502;2022-09-09T14:51:32;23.60;93.60
2010;DHT22;1008;47.404;8.502;2022-09-09T14:53:59;23.50;90.00
2010;DHT22;1008;47.404;8.502;2022-09-09T14:56:28;23.50;90.10
2010;DHT22;1008;47.404;8.502;2022-09-09T14:58:57;23.60;90.60
2010;DHT22;1008;47.404;8.502;2022-09-09T15:01:24;23.60;90.90
2010;DHT22;1008;47.404;8.502;2022-09-09T15:03:53;23.60;90.30
2010;DHT22;1008;47.404;8.502;2022-09-09T15:06:21;23.20;89.80
2010;DHT22;1008;47.404;8.502;2022-09-09T15:08:51;23.30;92.20
2010;DHT22;1008;47.404;8.502;2022-09-09T15:11:18;23.20;90.10
2010;DHT22;1008;47.404;8.502;2022-09-09T15:13:45;23.30;91.70
2010;DHT22;1008;47.404;8.502;2022-09-09T15:16:16;23.40;91.50
2010;DHT22;1008;47.404;8.502;2022-09-09T15:18:44;23.20;91.60
2010;DHT22;1008;47.404;8.502;2022-09-09T15:21:13;23.10;92.20
2010;DHT22;1008;47.404;8.502;2022-09-09T15:23:41;23.10;93.40
2010;DHT22;1008;47.404;8.502;2022-09-09T15:26:10;22.90;94.60
2010;DHT22;1008;47.404;8.502;2022-09-09T15:28:39;23.00;94.30
2010;DHT22;1008;47.404;8.502;2022-09-09T15:31:10;23.10;95.30
2010;DHT22;1008;47.404;8.502;2022-09-09T15:33:37;23.40;95.80
2010;DHT22;1008;47.404;8.502;2022-09-09T15:36:13;23.40;94.80
2010;DHT22;1008;47.404;8.502;2022-09-09T15:38:40;23.50;95.00
2010;DHT22;1008;47.404;8.502;2022-09-09T15:41:09;24.00;94.70
2010;DHT22;1008;47.404;8.502;2022-09-09T15:43:35;23.90;92.90
2010;DHT22;1008;47.404;8.502;2022-09-09T15:46:21;23.90;94.20
2010;DHT22;1008;47.404;8.502;2022-09-09T15:48:50;23.90;91.90
2010;DHT22;1008;47.404;8.502;2022-09-09T15:51:17;23.80;90.90
2010;DHT22;1008;47.404;8.502;2022-09-09T15:53:44;23.70;91.70
2010;DHT22;1008;47.404;8.502;2022-09-09T15:56:13;23.80;91.90
2010;DHT22;1008;47.404;8.502;2022-09-09T15:58:40;23.70;90.70
2010;DHT22;1008;47.404;8.502;2022-09-09T16:01:09;23.50;92.40
2010;DHT22;1008;47.404;8.502;2022-09-09T16:03:38;23.50;86.00
2010;DHT22;1008;47.404;8.502;2022-09-09T16:06:06;23.20;80.70
2010;DHT22;1008;47.404;8.502;2022-09-09T16:08:33;22.90;83.70
2010;DHT22;1008;47.404;8.502;2022-09-09T16:11:05;22.80;84.50
2010;DHT22;1008;47.404;8.502;2022-09-09T16:13:35;23.00;84.70
2010;DHT22;1008;47.404;8.502;2022-09-09T16:16:02;23.20;83.90
2010;DHT22;1008;47.404;8.502;2022-09-09T16:18:34;23.40;83.40
2010;DHT22;1008;47.404;8.502;2022-09-09T16:21:01;23.30;82.10
2010;DHT22;1008;47.404;8.502;2022-09-09T16:23:28;23.00;81.60
2010;DHT22;1008;47.404;8.502;2022-09-09T16:25:55;23.00;78.90
2010;DHT22;1008;47.404;8.502;2022-09-09T16:28:23;22.90;78.60